sensor_id;sensor_type;location;lat;lon;timestamp;pressure;altitude;pressure_sealevel;temperature;humidity
37904;BME280;23738;50.422;18.758;2023-06-14T00:02:18;98460.98;;;10.31;61.92
37904;BME280;23738;50.422;18.758;2023-06-14T00:04:46;98463.52;;;10.32;62.07
37904;BME280;23738;50.422;18.758;2023-06-14T00:07:14;98461.56;;;10.32;62.09
37904;BME280;23738;50.422;18.758;2023-06-14T00:09:43;98462.91;;;10.30;62.12
37904;BME280;23738;50.422;18.758;2023-06-14T00:12:10;98465.90;;;10.27;62.22
37904;BME280;23738;50.422;18.758;2023-06-14T00:14:37;98461.33;;;10.23;62.37
37904;BME280;23738;50.422;18.758;2023-06-14T00:17:05;98463.20;;;10.19;62.42
37904;BME280;23738;50.422;18.758;2023-06-14T00:19:33;98460.50;;;10.14;62.42
37904;BME280;23738;50.422;18.758;2023-06-14T00:22:02;98464.27;;;10.08;62.37
37904;BME280;23738;50.422;18.758;2023-06-14T00:24:29;98460.59;;;10.01;62.27
37904;BME280;23738;50.422;18.758;2023-06-14T00:26:57;98451.23;;;9.96;62.23
37904;BME280;23738;50.422;18.758;2023-06-14T00:29:24;98450.32;;;9.92;62.22
37904;BME280;23738;50.422;18.758;2023-06-14T00:31:51;98445.42;;;9.93;62.29
37904;BME280;23738;50.422;18.758;2023-06-14T00:34:19;98446.60;;;9.95;62.45
37904;BME280;23738;50.422;18.758;2023-06-14T00:36:46;98447.28;;;9.94;62.47
37904;BME280;23738;50.422;18.758;2023-06-14T00:39:14;98445.20;;;9.93;62.50
37904;BME280;23738;50.422;18.758;2023-06-14T00:41:41;98445.77;;;9.92;62.53
37904;BME280;23738;50.422;18.758;2023-06-14T00:44:09;98447.05;;;9.87;62.59
37904;BME280;23738;50.422;18.758;2023-06-14T00:46:36;98448.65;;;9.82;62.44
37904;BME280;23738;50.422;18.758;2023-06-14T00:49:03;98448.83;;;9.77;62.60
37904;BME280;23738;50.422;18.758;2023-06-14T00:51:31;98446.69;;;9.71;62.46
37904;BME280;23738;50.422;18.758;2023-06-14T00:53:59;98441.68;;;9.67;62.57
37904;BME280;23738;50.422;18.758;2023-06-14T00:56:27;98441.54;;;9.61;62.76
37904;BME280;23738;50.422;18.758;2023-06-14T00:58:55;98438.98;;;9.54;62.63
37904;BME280;23738;50.422;18.758;2023-06-14T01:01:23;98446.71;;;9.50;62.57
37904;BME280;23738;50.422;18.758;2023-06-14T01:03:51;98445.00;;;9.48;62.54
37904;BME280;23738;50.422;18.758;2023-06-14T01:06:23;98442.89;;;9.50;62.73
37904;BME280;23738;50.422;18.758;2023-06-14T01:09:06;98439.34;;;9.53;62.87
37904;BME280;23738;50.422;18.758;2023-06-14T01:11:40;98436.55;;;9.54;62.88
37904;BME280;23738;50.422;18.758;2023-06-14T01:14:13;98432.61;;;9.53;62.93
37904;BME280;23738;50.422;18.758;2023-06-14T01:16:41;98433.52;;;9.52;63.07
37904;BME280;23738;50.422;18.758;2023-06-14T01:19:12;98429.86;;;9.48;63.24
37904;BME280;23738;50.422;18.758;2023-06-14T01:21:41;98426.73;;;9.41;63.20
37904;BME280;23738;50.422;18.758;2023-06-14T01:24:08;98433.93;;;9.38;63.20
37904;BME280;23738;50.422;18.758;2023-06-14T01:26:36;98436.27;;;9.33;63.32
37904;BME280;23738;50.422;18.758;2023-06-14T01:29:05;98433.23;;;9.30;63.26
37904;BME280;23738;50.422;18.758;2023-06-14T01:31:34;98432.36;;;9.27;63.37
37904;BME280;23738;50.422;18.758;2023-06-14T01:34:08;98430.50;;;9.25;63.39
37904;BME280;23738;50.422;18.758;2023-06-14T01:36:37;98431.59;;;9.26;63.36
37904;BME280;23738;50.422;18.758;2023-06-14T01:39:08;98430.16;;;9.29;63.48
37904;BME280;23738;50.422;18.758;2023-06-14T01:41:36;98428.77;;;9.34;63.55
37904;BME280;23738;50.422;18.758;2023-06-14T01:44:04;98428.77;;;9.36;63.63
37904;BME280;23738;50.422;18.758;2023-06-14T01:46:32;98431.71;;;9.39;63.69
37904;BME280;23738;50.422;18.758;2023-06-14T01:48:59;98434.46;;;9.38;63.85
37904;BME280;23738;50.422;18.758;2023-06-14T01:51:26;98436.67;;;9.39;63.99
37904;BME280;23738;50.422;18.758;2023-06-14T01:53:54;98439.73;;;9.41;64.17
37904;BME280;23738;50.422;18.758;2023-06-14T01:56:21;98440.45;;;9.43;64.27
37904;BME280;23738;50.422;18.758;2023-06-14T01:58:49;98439.41;;;9.46;64.56
37904;BME280;23738;50.422;18.758;2023-06-14T02:01:17;98441.40;;;9.48;64.54
37904;BME280;23738;50.422;18.758;2023-06-14T02:03:45;98438.05;;;9.54;64.72
37904;BME280;23738;50.422;18.758;2023-06-14T02:06:13;98437.39;;;9.61;64.92
37904;BME280;23738;50.422;18.758;2023-06-14T02:08:40;98436.78;;;9.69;65.04
37904;BME280;23738;50.422;18.758;2023-06-14T02:11:07;98439.69;;;9.76;65.20
37904;BME280;23738;50.422;18.758;2023-06-14T02:13:35;98437.52;;;9.80;65.23
37904;BME280;23738;50.422;18.758;2023-06-14T02:16:02;98439.56;;;9.83;65.51
37904;BME280;23738;50.422;18.758;2023-06-14T02:18:30;98435.48;;;9.87;65.63
37904;BME280;23738;50.422;18.758;2023-06-14T02:20:58;98432.09;;;9.89;65.75
37904;BME280;23738;50.422;18.758;2023-06-14T02:23:25;98433.80;;;9.93;65.65
37904;BME280;23738;50.422;18.758;2023-06-14T02:25:53;98435.23;;;9.97;65.82
37904;BME280;23738;50.422;18.758;2023-06-14T02:28:20;98431.23;;;10.01;65.96
37904;BME280;23738;50.422;18.758;2023-06-14T02:30:47;98431.17;;;10.09;66.11
37904;BME280;23738;50.422;18.758;2023-06-14T02:33:14;98428.66;;;10.17;66.42
37904;BME280;23738;50.422;18.758;2023-06-14T02:35:42;98427.10;;;10.23;66.48
37904;BME280;23738;50.422;18.758;2023-06-14T02:38:09;98421.83;;;10.25;66.50
37904;BME280;23738;50.422;18.758;2023-06-14T02:40:36;98429.32;;;10.28;66.80
37904;BME280;23738;50.422;18.758;2023-06-14T02:43:04;98431.67;;;10.29;66.80
37904;BME280;23738;50.422;18.758;2023-06-14T02:45:31;98428.27;;;10.32;66.80
37904;BME280;23738;50.422;18.758;2023-06-14T02:47:58;98428.55;;;10.39;66.94
37904;BME280;23738;50.422;18.758;2023-06-14T02:50:26;98428.33;;;10.46;67.20
37904;BME280;23738;50.422;18.758;2023-06-14T02:52:55;98433.02;;;10.52;67.36
37904;BME280;23738;50.422;18.758;2023-06-14T02:55:23;98429.65;;;10.56;67.61
37904;BME280;23738;50.422;18.758;2023-06-14T02:57:50;98436.89;;;10.60;67.64
37904;BME280;23738;50.422;18.758;2023-06-14T03:00:20;98432.90;;;10.63;67.70
37904;BME280;23738;50.422;18.758;2023-06-14T03:02:47;98426.04;;;10.69;67.84
37904;BME280;23738;50.422;18.758;2023-06-14T03:05:15;98425.22;;;10.72;67.96
37904;BME280;23738;50.422;18.758;2023-06-14T03:07:43;98432.02;;;10.81;68.09
37904;BME280;23738;50.422;18.758;2023-06-14T03:10:12;98428.11;;;10.89;68.49
37904;BME280;23738;50.422;18.758;2023-06-14T03:12:40;98428.36;;;10.91;68.63
37904;BME280;23738;50.422;18.758;2023-06-14T03:15:09;98425.02;;;10.92;68.61
37904;BME280;23738;50.422;18.758;2023-06-14T03:17:37;98422.67;;;10.93;68.75
37904;BME280;23738;50.422;18.758;2023-06-14T03:20:07;98418.71;;;10.99;69.13
37904;BME280;23738;50.422;18.758;2023-06-14T03:22:35;98417.20;;;11.06;69.20
37904;BME280;23738;50.422;18.758;2023-06-14T03:25:03;98415.32;;;11.14;69.63
37904;BME280;23738;50.422;18.758;2023-06-14T03:27:30;98417.64;;;11.22;69.49
37904;BME280;23738;50.422;18.758;2023-06-14T03:29:58;98421.13;;;11.32;69.72
37904;BME280;23738;50.422;18.758;2023-06-14T03:32:25;98420.36;;;11.37;69.70
37904;BME280;23738;50.422;18.758;2023-06-14T03:34:53;98419.62;;;11.42;69.69
37904;BME280;23738;50.422;18.758;2023-06-14T03:37:20;98419.52;;;11.51;70.10
37904;BME280;23738;50.422;18.758;2023-06-14T03:39:47;98417.57;;;11.60;70.15
37904;BME280;23738;50.422;18.758;2023-06-14T03:42:15;98414.55;;;11.67;70.35
37904;BME280;23738;50.422;18.758;2023-06-14T03:44:42;98419.02;;;11.76;70.59
37904;BME280;23738;50.422;18.758;2023-06-14T03:47:09;98425.48;;;11.79;70.60
37904;BME280;23738;50.422;18.758;2023-06-14T03:49:36;98432.83;;;11.83;70.70
37904;BME280;23738;50.422;18.758;2023-06-14T03:52:05;98431.93;;;11.87;70.65
37904;BME280;23738;50.422;18.758;2023-06-14T03:54:32;98433.84;;;11.96;70.98
37904;BME280;23738;50.422;18.758;2023-06-14T03:56:59;98432.90;;;12.07;71.22
37904;BME280;23738;50.422;18.758;2023-06-14T03:59:27;98434.88;;;12.15;71.41
37904;BME280;23738;50.422;18.758;2023-06-14T04:01:55;98436.23;;;12.22;71.39
37904;BME280;23738;50.422;18.758;2023-06-14T04:04:22;98431.42;;;12.22;71.33
37904;BME280;23738;50.422;18.758;2023-06-14T04:06:56;98430.98;;;12.21;71.33
37904;BME280;23738;50.422;18.758;2023-06-14T04:09:25;98429.14;;;12.22;71.44
37904;BME280;23738;50.422;18.758;2023-06-14T04:11:53;98428.70;;;12.24;71.53
37904;BME280;23738;50.422;18.758;2023-06-14T04:14:20;98427.91;;;12.33;71.66
37904;BME280;23738;50.422;18.758;2023-06-14T04:16:48;98429.42;;;12.39;71.88
37904;BME280;23738;50.422;18.758;2023-06-14T04:19:16;98430.64;;;12.42;71.80
37904;BME280;23738;50.422;18.758;2023-06-14T04:21:43;98430.11;;;12.41;71.95
37904;BME280;23738;50.422;18.758;2023-06-14T04:24:11;98429.60;;;12.43;71.85
37904;BME280;23738;50.422;18.758;2023-06-14T04:26:40;98427.92;;;12.45;71.90
37904;BME280;23738;50.422;18.758;2023-06-14T04:29:08;98426.23;;;12.48;71.83
37904;BME280;23738;50.422;18.758;2023-06-14T04:31:35;98430.31;;;12.53;72.24
37904;BME280;23738;50.422;18.758;2023-06-14T04:34:04;98433.27;;;12.60;72.40
37904;BME280;23738;50.422;18.758;2023-06-14T04:36:32;98426.81;;;12.68;72.72
37904;BME280;23738;50.422;18.758;2023-06-14T04:39:01;98424.38;;;12.79;72.86
37904;BME280;23738;50.422;18.758;2023-06-14T04:41:31;98421.78;;;12.83;72.65
37904;BME280;23738;50.422;18.758;2023-06-14T04:43:59;98424.46;;;12.87;72.67
37904;BME280;23738;50.422;18.758;2023-06-14T04:46:28;98422.70;;;12.89;72.85
37904;BME280;23738;50.422;18.758;2023-06-14T04:48:55;98426.63;;;12.97;72.99
37904;BME280;23738;50.422;18.758;2023-06-14T04:51:23;98424.94;;;13.05;73.09
37904;BME280;23738;50.422;18.758;2023-06-14T04:53:56;98424.98;;;13.09;72.98
37904;BME280;23738;50.422;18.758;2023-06-14T04:56:25;98427.27;;;13.12;73.00
37904;BME280;23738;50.422;18.758;2023-06-14T04:58:52;98429.45;;;13.14;72.94
37904;BME280;23738;50.422;18.758;2023-06-14T05:01:20;98426.48;;;13.14;72.98
37904;BME280;23738;50.422;18.758;2023-06-14T05:03:48;98429.86;;;13.19;73.20
37904;BME280;23738;50.422;18.758;2023-06-14T05:06:16;98430.98;;;13.26;73.25
37904;BME280;23738;50.422;18.758;2023-06-14T05:08:44;98429.23;;;13.34;73.47
37904;BME280;23738;50.422;18.758;2023-06-14T05:11:12;98431.02;;;13.41;73.52
37904;BME280;23738;50.422;18.758;2023-06-14T05:13:39;98437.66;;;13.48;73.50
37904;BME280;23738;50.422;18.758;2023-06-14T05:16:07;98434.00;;;13.54;73.56
37904;BME280;23738;50.422;18.758;2023-06-14T05:18:34;98432.69;;;13.58;73.58
37904;BME280;23738;50.422;18.758;2023-06-14T05:21:02;98436.39;;;13.59;73.62
37904;BME280;23738;50.422;18.758;2023-06-14T05:23:30;98439.07;;;13.61;73.81
37904;BME280;23738;50.422;18.758;2023-06-14T05:25:57;98437.47;;;13.65;73.87
37904;BME280;23738;50.422;18.758;2023-06-14T05:28:25;98445.23;;;13.70;73.90
37904;BME280;23738;50.422;18.758;2023-06-14T05:30:52;98446.70;;;13.76;74.00
37904;BME280;23738;50.422;18.758;2023-06-14T05:33:19;98448.09;;;13.80;73.93
37904;BME280;23738;50.422;18.758;2023-06-14T05:35:48;98445.52;;;13.86;74.14
37904;BME280;23738;50.422;18.758;2023-06-14T05:38:15;98449.03;;;14.03;74.24
37904;BME280;23738;50.422;18.758;2023-06-14T05:40:43;98454.94;;;14.27;74.65
37904;BME280;23738;50.422;18.758;2023-06-14T05:43:10;98450.73;;;14.46;74.67
37904;BME280;23738;50.422;18.758;2023-06-14T05:45:37;98446.62;;;14.71;74.81
37904;BME280;23738;50.422;18.758;2023-06-14T05:48:05;98450.72;;;14.76;74.34
37904;BME280;23738;50.422;18.758;2023-06-14T05:50:32;98453.34;;;14.77;74.41
37904;BME280;23738;50.422;18.758;2023-06-14T05:53:00;98459.91;;;14.78;74.37
37904;BME280;23738;50.422;18.758;2023-06-14T05:55:27;98465.02;;;14.80;74.32
37904;BME280;23738;50.422;18.758;2023-06-14T05:57:54;98465.77;;;14.78;74.20
37904;BME280;23738;50.422;18.758;2023-06-14T06:00:22;98464.21;;;14.73;73.99
37904;BME280;23738;50.422;18.758;2023-06-14T06:02:49;98462.48;;;14.72;73.98
37904;BME280;23738;50.422;18.758;2023-06-14T06:05:17;98462.16;;;14.71;73.94
37904;BME280;23738;50.422;18.758;2023-06-14T06:07:44;98461.07;;;14.70;73.88
37904;BME280;23738;50.422;18.758;2023-06-14T06:10:12;98461.88;;;14.71;74.08
37904;BME280;23738;50.422;18.758;2023-06-14T06:12:40;98460.73;;;14.75;74.07
37904;BME280;23738;50.422;18.758;2023-06-14T06:15:09;98465.27;;;14.81;74.19
37904;BME280;23738;50.422;18.758;2023-06-14T06:17:38;98464.89;;;14.90;74.34
37904;BME280;23738;50.422;18.758;2023-06-14T06:20:07;98462.35;;;14.93;73.92
37904;BME280;23738;50.422;18.758;2023-06-14T06:22:36;98467.21;;;14.93;73.93
37904;BME280;23738;50.422;18.758;2023-06-14T06:25:04;98473.35;;;14.96;74.02
37904;BME280;23738;50.422;18.758;2023-06-14T06:27:31;98477.86;;;15.01;74.08
37904;BME280;23738;50.422;18.758;2023-06-14T06:29:59;98474.76;;;15.02;73.97
37904;BME280;23738;50.422;18.758;2023-06-14T06:32:26;98480.41;;;15.03;73.96
37904;BME280;23738;50.422;18.758;2023-06-14T06:34:53;98480.80;;;15.01;73.91
37904;BME280;23738;50.422;18.758;2023-06-14T06:37:21;98481.19;;;15.02;74.01
37904;BME280;23738;50.422;18.758;2023-06-14T06:39:48;98486.28;;;15.07;73.94
37904;BME280;23738;50.422;18.758;2023-06-14T06:42:15;98485.21;;;15.12;73.98
37904;BME280;23738;50.422;18.758;2023-06-14T06:44:42;98487.61;;;15.16;74.02
37904;BME280;23738;50.422;18.758;2023-06-14T06:47:10;98492.90;;;15.20;74.03
37904;BME280;23738;50.422;18.758;2023-06-14T06:49:37;98487.77;;;15.23;74.13
37904;BME280;23738;50.422;18.758;2023-06-14T06:52:06;98488.21;;;15.28;74.18
37904;BME280;23738;50.422;18.758;2023-06-14T06:54:34;98487.85;;;15.30;74.11
37904;BME280;23738;50.422;18.758;2023-06-14T06:57:02;98490.02;;;15.32;74.00
37904;BME280;23738;50.422;18.758;2023-06-14T06:59:29;98490.52;;;15.34;74.04
37904;BME280;23738;50.422;18.758;2023-06-14T07:01:56;98491.17;;;15.38;74.06
37904;BME280;23738;50.422;18.758;2023-06-14T07:04:24;98490.52;;;15.40;73.99
37904;BME280;23738;50.422;18.758;2023-06-14T07:06:51;98490.86;;;15.44;73.94
37904;BME280;23738;50.422;18.758;2023-06-14T07:09:18;98488.39;;;15.49;73.93
37904;BME280;23738;50.422;18.758;2023-06-14T07:11:47;98493.02;;;15.55;73.94
37904;BME280;23738;50.422;18.758;2023-06-14T07:14:14;98492.91;;;15.64;74.10
37904;BME280;23738;50.422;18.758;2023-06-14T07:16:42;98495.16;;;15.73;73.94
37904;BME280;23738;50.422;18.758;2023-06-14T07:19:09;98492.16;;;15.76;73.86
37904;BME280;23738;50.422;18.758;2023-06-14T07:21:37;98495.98;;;15.83;73.95
37904;BME280;23738;50.422;18.758;2023-06-14T07:24:06;98492.90;;;15.88;73.88
37904;BME280;23738;50.422;18.758;2023-06-14T07:26:34;98497.18;;;15.94;73.75
37904;BME280;23738;50.422;18.758;2023-06-14T07:29:02;98494.15;;;15.97;73.65
37904;BME280;23738;50.422;18.758;2023-06-14T07:31:30;98501.08;;;16.02;73.62
37904;BME280;23738;50.422;18.758;2023-06-14T07:33:57;98500.67;;;16.08;73.60
37904;BME280;23738;50.422;18.758;2023-06-14T07:36:24;98504.64;;;16.15;73.47
37904;BME280;23738;50.422;18.758;2023-06-14T07:38:51;98504.86;;;16.21;73.57
37904;BME280;23738;50.422;18.758;2023-06-14T07:41:19;98507.96;;;16.35;73.77
37904;BME280;23738;50.422;18.758;2023-06-14T07:43:46;98506.45;;;16.55;73.94
37904;BME280;23738;50.422;18.758;2023-06-14T07:46:13;98507.58;;;16.68;73.81
37904;BME280;23738;50.422;18.758;2023-06-14T07:48:41;98511.34;;;16.75;73.66
37904;BME280;23738;50.422;18.758;2023-06-14T07:51:08;98512.40;;;16.81;73.69
37904;BME280;23738;50.422;18.758;2023-06-14T07:53:35;98516.44;;;16.84;73.54
37904;BME280;23738;50.422;18.758;2023-06-14T07:56:04;98510.15;;;16.84;73.47
37904;BME280;23738;50.422;18.758;2023-06-14T07:58:31;98515.61;;;16.97;73.65
37904;BME280;23738;50.422;18.758;2023-06-14T08:00:58;98514.98;;;17.14;73.73
37904;BME280;23738;50.422;18.758;2023-06-14T08:03:28;98519.35;;;17.30;73.52
37904;BME280;23738;50.422;18.758;2023-06-14T08:05:56;98521.73;;;17.35;73.09
37904;BME280;23738;50.422;18.758;2023-06-14T08:08:23;98519.44;;;17.31;72.75
37904;BME280;23738;50.422;18.758;2023-06-14T08:10:51;98521.64;;;17.26;72.54
37904;BME280;23738;50.422;18.758;2023-06-14T08:13:18;98524.88;;;17.20;72.40
37904;BME280;23738;50.422;18.758;2023-06-14T08:15:46;98519.72;;;17.09;72.14
37904;BME280;23738;50.422;18.758;2023-06-14T08:18:13;98520.66;;;17.02;72.20
37904;BME280;23738;50.422;18.758;2023-06-14T08:20:41;98523.92;;;16.93;72.10
37904;BME280;23738;50.422;18.758;2023-06-14T08:23:09;98523.58;;;16.83;71.90
37904;BME280;23738;50.422;18.758;2023-06-14T08:25:36;98524.23;;;16.75;71.81
37904;BME280;23738;50.422;18.758;2023-06-14T08:28:04;98526.64;;;16.74;71.83
37904;BME280;23738;50.422;18.758;2023-06-14T08:30:31;98530.77;;;16.71;71.60
37904;BME280;23738;50.422;18.758;2023-06-14T08:32:58;98527.59;;;16.64;71.72
37904;BME280;23738;50.422;18.758;2023-06-14T08:35:26;98531.95;;;16.59;71.60
37904;BME280;23738;50.422;18.758;2023-06-14T08:37:53;98532.38;;;16.50;71.48
37904;BME280;23738;50.422;18.758;2023-06-14T08:40:21;98536.71;;;16.43;71.51
37904;BME280;23738;50.422;18.758;2023-06-14T08:42:51;98537.66;;;16.37;71.65
37904;BME280;23738;50.422;18.758;2023-06-14T08:45:19;98539.56;;;16.36;71.69
37904;BME280;23738;50.422;18.758;2023-06-14T08:47:48;98540.66;;;16.35;71.75
37904;BME280;23738;50.422;18.758;2023-06-14T08:50:21;98544.40;;;16.27;71.63
37904;BME280;23738;50.422;18.758;2023-06-14T08:52:53;98543.51;;;16.21;71.81
37904;BME280;23738;50.422;18.758;2023-06-14T08:55:22;98544.14;;;16.16;71.70
37904;BME280;23738;50.422;18.758;2023-06-14T08:57:54;98549.81;;;16.11;71.83
37904;BME280;23738;50.422;18.758;2023-06-14T09:00:23;98555.27;;;16.07;71.76
37904;BME280;23738;50.422;18.758;2023-06-14T09:02:51;98559.09;;;16.04;71.71
37904;BME280;23738;50.422;18.758;2023-06-14T09:05:23;98558.53;;;15.98;71.88
37904;BME280;23738;50.422;18.758;2023-06-14T09:07:50;98561.63;;;15.99;71.97
37904;BME280;23738;50.422;18.758;2023-06-14T09:10:19;98566.23;;;15.96;72.00
37904;BME280;23738;50.422;18.758;2023-06-14T09:12:47;98566.95;;;15.93;72.13
37904;BME280;23738;50.422;18.758;2023-06-14T09:15:15;98564.27;;;15.92;72.16
37904;BME280;23738;50.422;18.758;2023-06-14T09:17:43;98568.88;;;15.96;72.18
37904;BME280;23738;50.422;18.758;2023-06-14T09:20:11;98564.98;;;16.02;72.41
37904;BME280;23738;50.422;18.758;2023-06-14T09:22:40;98566.91;;;16.08;72.33
37904;BME280;23738;50.422;18.758;2023-06-14T09:25:09;98562.75;;;16.10;72.41
37904;BME280;23738;50.422;18.758;2023-06-14T09:27:36;98559.91;;;16.12;72.55
37904;BME280;23738;50.422;18.758;2023-06-14T09:30:08;98561.23;;;16.22;72.60
37904;BME280;23738;50.422;18.758;2023-06-14T09:32:38;98559.80;;;16.33;72.77
37904;BME280;23738;50.422;18.758;2023-06-14T09:35:07;98556.55;;;16.43;72.91
37904;BME280;23738;50.422;18.758;2023-06-14T09:37:35;98557.59;;;16.50;72.72
37904;BME280;23738;50.422;18.758;2023-06-14T09:40:06;98552.89;;;16.45;72.74
37904;BME280;23738;50.422;18.758;2023-06-14T09:42:34;98555.56;;;16.45;72.88
37904;BME280;23738;50.422;18.758;2023-06-14T09:45:03;98557.33;;;16.48;72.88
37904;BME280;23738;50.422;18.758;2023-06-14T09:47:31;98558.30;;;16.45;72.80
37904;BME280;23738;50.422;18.758;2023-06-14T09:49:58;98556.27;;;16.53;72.97
37904;BME280;23738;50.422;18.758;2023-06-14T09:52:28;98554.89;;;16.65;73.19
37904;BME280;23738;50.422;18.758;2023-06-14T09:55:12;98557.83;;;16.79;73.21
37904;BME280;23738;50.422;18.758;2023-06-14T09:57:41;98558.02;;;16.96;73.46
37904;BME280;23738;50.422;18.758;2023-06-14T10:00:11;98552.98;;;17.23;73.75
37904;BME280;23738;50.422;18.758;2023-06-14T10:02:41;98556.53;;;17.57;73.90
37904;BME280;23738;50.422;18.758;2023-06-14T10:05:16;98555.88;;;17.79;73.79
37904;BME280;23738;50.422;18.758;2023-06-14T10:07:51;98555.59;;;17.85;73.19
37904;BME280;23738;50.422;18.758;2023-06-14T10:10:20;98563.27;;;17.81;73.04
37904;BME280;23738;50.422;18.758;2023-06-14T10:12:47;98560.38;;;17.76;72.98
37904;BME280;23738;50.422;18.758;2023-06-14T10:15:19;98559.69;;;17.80;73.00
37904;BME280;23738;50.422;18.758;2023-06-14T10:17:50;98558.99;;;17.84;72.89
37904;BME280;23738;50.422;18.758;2023-06-14T10:20:27;98558.36;;;17.84;72.65
37904;BME280;23738;50.422;18.758;2023-06-14T10:23:00;98561.81;;;17.76;72.42
37904;BME280;23738;50.422;18.758;2023-06-14T10:25:30;98565.36;;;17.70;72.38
37904;BME280;23738;50.422;18.758;2023-06-14T10:28:15;98563.14;;;17.68;72.28
37904;BME280;23738;50.422;18.758;2023-06-14T10:31:07;98558.33;;;17.68;72.21
37904;BME280;23738;50.422;18.758;2023-06-14T10:33:35;98558.79;;;17.70;72.19
37904;BME280;23738;50.422;18.758;2023-06-14T10:36:26;98555.09;;;17.72;72.04
37904;BME280;23738;50.422;18.758;2023-06-14T10:39:04;98555.56;;;17.76;72.27
37904;BME280;23738;50.422;18.758;2023-06-14T10:41:34;98558.30;;;17.80;72.04
37904;BME280;23738;50.422;18.758;2023-06-14T10:44:32;98560.73;;;17.78;71.90
37904;BME280;23738;50.422;18.758;2023-06-14T10:47:00;98558.39;;;17.78;71.87
37904;BME280;23738;50.422;18.758;2023-06-14T10:49:39;98556.86;;;17.81;71.98
37904;BME280;23738;50.422;18.758;2023-06-14T10:52:10;98552.76;;;17.89;71.85
37904;BME280;23738;50.422;18.758;2023-06-14T10:55:06;98550.20;;;17.97;71.84
37904;BME280;23738;50.422;18.758;2023-06-14T10:57:36;98544.53;;;18.05;71.92
37904;BME280;23738;50.422;18.758;2023-06-14T11:00:05;98544.70;;;18.13;71.81
37904;BME280;23738;50.422;18.758;2023-06-14T11:02:52;98544.57;;;18.18;71.38
37904;BME280;23738;50.422;18.758;2023-06-14T11:05:26;98541.38;;;18.16;71.23
37904;BME280;23738;50.422;18.758;2023-06-14T11:08:14;98542.49;;;18.16;71.44
37904;BME280;23738;50.422;18.758;2023-06-14T11:10:45;98541.04;;;18.18;71.22
37904;BME280;23738;50.422;18.758;2023-06-14T11:13:13;98537.20;;;18.16;71.21
37904;BME280;23738;50.422;18.758;2023-06-14T11:15:45;98534.66;;;18.15;71.06
37904;BME280;23738;50.422;18.758;2023-06-14T11:18:14;98530.14;;;18.12;70.96
37904;BME280;23738;50.422;18.758;2023-06-14T11:20:45;98530.04;;;18.08;70.88
37904;BME280;23738;50.422;18.758;2023-06-14T11:23:13;98530.70;;;18.06;70.83
37904;BME280;23738;50.422;18.758;2023-06-14T11:25:40;98533.61;;;18.07;70.87
37904;BME280;23738;50.422;18.758;2023-06-14T11:28:08;98534.87;;;18.09;70.84
37904;BME280;23738;50.422;18.758;2023-06-14T11:30:35;98533.76;;;18.09;70.70
37904;BME280;23738;50.422;18.758;2023-06-14T11:33:02;98532.05;;;18.10;70.73
37904;BME280;23738;50.422;18.758;2023-06-14T11:35:29;98529.30;;;18.08;70.68
37904;BME280;23738;50.422;18.758;2023-06-14T11:37:57;98532.33;;;18.04;70.49
37904;BME280;23738;50.422;18.758;2023-06-14T11:40:25;98532.25;;;17.93;70.25
37904;BME280;23738;50.422;18.758;2023-06-14T11:42:59;98532.98;;;17.84;70.30
37904;BME280;23738;50.422;18.758;2023-06-14T11:45:27;98531.50;;;17.77;70.15
37904;BME280;23738;50.422;18.758;2023-06-14T11:47:56;98535.67;;;17.71;70.13
37904;BME280;23738;50.422;18.758;2023-06-14T11:50:24;98534.00;;;17.67;70.31
37904;BME280;23738;50.422;18.758;2023-06-14T11:52:55;98535.08;;;17.67;70.24
37904;BME280;23738;50.422;18.758;2023-06-14T11:55:23;98538.26;;;17.66;70.19
37904;BME280;23738;50.422;18.758;2023-06-14T11:57:50;98535.56;;;17.68;70.33
37904;BME280;23738;50.422;18.758;2023-06-14T12:00:19;98535.62;;;17.71;70.21
37904;BME280;23738;50.422;18.758;2023-06-14T12:02:53;98531.98;;;17.72;70.26
37904;BME280;23738;50.422;18.758;2023-06-14T12:05:23;98530.86;;;17.75;70.31
37904;BME280;23738;50.422;18.758;2023-06-14T12:07:51;98530.43;;;17.75;70.19
37904;BME280;23738;50.422;18.758;2023-06-14T12:10:26;98529.23;;;17.74;70.22
37904;BME280;23738;50.422;18.758;2023-06-14T12:12:57;98521.18;;;17.77;70.35
37904;BME280;23738;50.422;18.758;2023-06-14T12:15:27;98523.01;;;17.85;70.43
37904;BME280;23738;50.422;18.758;2023-06-14T12:17:55;98523.48;;;17.94;70.55
37904;BME280;23738;50.422;18.758;2023-06-14T12:20:22;98526.08;;;18.00;70.64
37904;BME280;23738;50.422;18.758;2023-06-14T12:22:53;98520.23;;;18.02;70.48
37904;BME280;23738;50.422;18.758;2023-06-14T12:25:28;98523.35;;;18.08;70.61
37904;BME280;23738;50.422;18.758;2023-06-14T12:27:57;98523.39;;;18.19;70.55
37904;BME280;23738;50.422;18.758;2023-06-14T12:30:25;98522.10;;;18.27;70.52
37904;BME280;23738;50.422;18.758;2023-06-14T12:32:52;98522.34;;;18.34;70.39
37904;BME280;23738;50.422;18.758;2023-06-14T12:35:19;98520.09;;;18.48;70.58
37904;BME280;23738;50.422;18.758;2023-06-14T12:37:46;98515.09;;;18.62;70.33
37904;BME280;23738;50.422;18.758;2023-06-14T12:40:14;98513.64;;;18.77;70.39
37904;BME280;23738;50.422;18.758;2023-06-14T12:42:42;98515.84;;;18.99;70.37
37904;BME280;23738;50.422;18.758;2023-06-14T12:45:12;98507.50;;;19.12;69.59
37904;BME280;23738;50.422;18.758;2023-06-14T12:47:39;98505.74;;;19.21;69.60
37904;BME280;23738;50.422;18.758;2023-06-14T12:50:08;98500.44;;;19.33;69.41
37904;BME280;23738;50.422;18.758;2023-06-14T12:52:35;98503.95;;;19.56;69.40
37904;BME280;23738;50.422;18.758;2023-06-14T12:55:03;98496.17;;;19.92;69.34
37904;BME280;23738;50.422;18.758;2023-06-14T12:57:31;98494.13;;;20.23;68.60
37904;BME280;23738;50.422;18.758;2023-06-14T13:00:04;98490.55;;;20.50;68.95
37904;BME280;23738;50.422;18.758;2023-06-14T13:02:32;98490.55;;;20.85;68.16